sensor_id;sensor_type;location;lat;lon;timestamp;pressure;altitude;pressure_sealevel;temperature
32827;BMP280;51059;42.058;27.986;2023-08-31T00:01:11;100449.72;;;22.82
32827;BMP280;51059;42.058;27.986;2023-08-31T00:03:37;100458.41;;;22.50
32827;BMP280;51059;42.058;27.986;2023-08-31T00:06:04;100452.31;;;22.72
32827;BMP280;51059;42.058;27.986;2023-08-31T00:08:34;100459.97;;;22.72
32827;BMP280;51059;42.058;27.986;2023-08-31T00:11:00;100472.69;;;22.72
32827;BMP280;51059;42.058;27.986;2023-08-31T00:13:26;100468.47;;;22.68
32827;BMP280;51059;42.058;27.986;2023-08-31T00:15:56;100464.25;;;22.67
32827;BMP280;51059;42.058;27.986;2023-08-31T00:18:27;100477.78;;;22.72
32827;BMP280;51059;42.058;27.986;2023-08-31T00:20:54;100473.56;;;22.68
32827;BMP280;51059;42.058;27.986;2023-08-31T00:23:20;100460.81;;;22.72
32827;BMP280;51059;42.058;27.986;2023-08-31T00:25:49;100475.19;;;22.77
32827;BMP280;51059;42.058;27.986;2023-08-31T00:28:19;100473.50;;;22.79
32827;BMP280;51059;42.058;27.986;2023-08-31T00:30:47;100469.25;;;22.77
32827;BMP280;51059;42.058;27.986;2023-08-31T00:33:14;100476.88;;;22.77
32827;BMP280;51059;42.058;27.986;2023-08-31T00:35:41;100473.53;;;22.76
32827;BMP280;51059;42.058;27.986;2023-08-31T00:38:12;100476.78;;;22.94
32827;BMP280;51059;42.058;27.986;2023-08-31T00:40:44;100493.72;;;22.97
32827;BMP280;51059;42.058;27.986;2023-08-31T00:43:16;100485.22;;;23.01
32827;BMP280;51059;42.058;27.986;2023-08-31T00:45:44;100495.53;;;22.83
32827;BMP280;51059;42.058;27.986;2023-08-31T00:48:11;100483.63;;;22.85
32827;BMP280;51059;42.058;27.986;2023-08-31T00:50:37;100492.91;;;22.95
32827;BMP280;51059;42.058;27.986;2023-08-31T00:53:03;100488.72;;;22.85
32827;BMP280;51059;42.058;27.986;2023-08-31T00:55:29;100489.56;;;22.84
32827;BMP280;51059;42.058;27.986;2023-08-31T00:57:58;100496.44;;;22.71
32827;BMP280;51059;42.058;27.986;2023-08-31T01:00:37;100506.59;;;22.75
32827;BMP280;51059;42.058;27.986;2023-08-31T01:03:12;100510.06;;;22.64
32827;BMP280;51059;42.058;27.986;2023-08-31T01:08:36;100508.31;;;22.70
32827;BMP280;51059;42.058;27.986;2023-08-31T01:11:49;100509.19;;;22.65
32827;BMP280;51059;42.058;27.986;2023-08-31T01:14:01;100511.81;;;22.52
32827;BMP280;51059;42.058;27.986;2023-08-31T01:16:33;100511.81;;;22.52
32827;BMP280;51059;42.058;27.986;2023-08-31T01:19:04;100521.22;;;22.25
32827;BMP280;51059;42.058;27.986;2023-08-31T01:21:38;100519.50;;;22.30
32827;BMP280;51059;42.058;27.986;2023-08-31T01:24:06;100517.78;;;22.49
32827;BMP280;51059;42.058;27.986;2023-08-31T01:26:34;100526.19;;;22.57
32827;BMP280;51059;42.058;27.986;2023-08-31T01:29:00;100530.47;;;22.52
32827;BMP280;51059;42.058;27.986;2023-08-31T01:31:26;100532.16;;;22.55
32827;BMP280;51059;42.058;27.986;2023-08-31T01:37:09;100542.34;;;22.55
32827;BMP280;51059;42.058;27.986;2023-08-31T01:39:46;100544.84;;;22.59
32827;BMP280;51059;42.058;27.986;2023-08-31T01:42:16;100538.09;;;22.54
32827;BMP280;51059;42.058;27.986;2023-08-31T01:44:44;100550.00;;;22.47
32827;BMP280;51059;42.058;27.986;2023-08-31T01:47:12;100539.03;;;22.30
32827;BMP280;51059;42.058;27.986;2023-08-31T01:49:39;100537.31;;;22.23
32827;BMP280;51059;42.058;27.986;2023-08-31T01:52:06;100545.00;;;22.07
32827;BMP280;51059;42.058;27.986;2023-08-31T01:54:32;100555.19;;;22.01
32827;BMP280;51059;42.058;27.986;2023-08-31T01:56:57;100525.56;;;21.90
32827;BMP280;51059;42.058;27.986;2023-08-31T01:59:23;100542.50;;;21.85
32827;BMP280;51059;42.058;27.986;2023-08-31T02:01:49;100544.19;;;21.90
32827;BMP280;51059;42.058;27.986;2023-08-31T02:04:16;100545.84;;;22.10
32827;BMP280;51059;42.058;27.986;2023-08-31T02:06:42;100541.56;;;22.19
32827;BMP280;51059;42.058;27.986;2023-08-31T02:09:08;100544.09;;;22.21
32827;BMP280;51059;42.058;27.986;2023-08-31T02:11:34;100528.88;;;22.22
32827;BMP280;51059;42.058;27.986;2023-08-31T02:14:04;100528.03;;;22.22
32827;BMP280;51059;42.058;27.986;2023-08-31T02:16:31;100532.25;;;22.26
32827;BMP280;51059;42.058;27.986;2023-08-31T02:18:58;100532.22;;;22.27
32827;BMP280;51059;42.058;27.986;2023-08-31T02:21:24;100541.56;;;22.19
32827;BMP280;51059;42.058;27.986;2023-08-31T02:23:50;100547.47;;;22.34
32827;BMP280;51059;42.058;27.986;2023-08-31T02:26:16;100546.63;;;22.31
32827;BMP280;51059;42.058;27.986;2023-08-31T02:28:42;100553.44;;;22.26
32827;BMP280;51059;42.058;27.986;2023-08-31T02:31:09;100549.19;;;22.27
32827;BMP280;51059;42.058;27.986;2023-08-31T02:33:38;100538.16;;;22.25
32827;BMP280;51059;42.058;27.986;2023-08-31T02:36:05;100538.13;;;22.33
32827;BMP280;51059;42.058;27.986;2023-08-31T02:38:31;100559.38;;;22.19
32827;BMP280;51059;42.058;27.986;2023-08-31T02:40:57;100544.13;;;22.18
32827;BMP280;51059;42.058;27.986;2023-08-31T02:43:23;100537.38;;;22.10
32827;BMP280;51059;42.058;27.986;2023-08-31T02:45:59;100534.78;;;22.21
32827;BMP280;51059;42.058;27.986;2023-08-31T02:48:27;100540.75;;;22.15
32827;BMP280;51059;42.058;27.986;2023-08-31T02:50:54;100543.31;;;22.07
32827;BMP280;51059;42.058;27.986;2023-08-31T02:53:27;100541.59;;;22.11
32827;BMP280;51059;42.058;27.986;2023-08-31T02:55:54;100541.53;;;22.37
32827;BMP280;51059;42.058;27.986;2023-08-31T02:58:20;100547.53;;;22.07
32827;BMP280;51059;42.058;27.986;2023-08-31T03:00:46;100545.03;;;21.85
32827;BMP280;51059;42.058;27.986;2023-08-31T03:03:15;100556.06;;;21.97
32827;BMP280;51059;42.058;27.986;2023-08-31T03:05:40;100565.34;;;22.01
32827;BMP280;51059;42.058;27.986;2023-08-31T03:08:06;100561.94;;;22.15
32827;BMP280;51059;42.058;27.986;2023-08-31T03:10:32;100558.56;;;22.02
32827;BMP280;51059;42.058;27.986;2023-08-31T03:12:58;100542.50;;;21.98
32827;BMP280;51059;42.058;27.986;2023-08-31T03:15:25;100557.72;;;22.10
32827;BMP280;51059;42.058;27.986;2023-08-31T03:17:51;100554.31;;;22.06
32827;BMP280;51059;42.058;27.986;2023-08-31T03:20:17;100552.63;;;22.00
32827;BMP280;51059;42.058;27.986;2023-08-31T03:22:43;100552.63;;;22.10
32827;BMP280;51059;42.058;27.986;2023-08-31T03:25:09;100555.19;;;22.01
32827;BMP280;51059;42.058;27.986;2023-08-31T03:27:35;100550.03;;;22.27
32827;BMP280;51059;42.058;27.986;2023-08-31T03:30:02;100542.47;;;22.01
32827;BMP280;51059;42.058;27.986;2023-08-31T03:32:31;100578.06;;;21.91
32827;BMP280;51059;42.058;27.986;2023-08-31T03:34:57;100575.53;;;21.89
32827;BMP280;51059;42.058;27.986;2023-08-31T03:37:23;100583.09;;;22.32
32827;BMP280;51059;42.058;27.986;2023-08-31T03:39:49;100578.81;;;22.38
32827;BMP280;51059;42.058;27.986;2023-08-31T03:42:15;100573.69;;;22.64
32827;BMP280;51059;42.058;27.986;2023-08-31T03:44:41;100575.19;;;23.00
32827;BMP280;51059;42.058;27.986;2023-08-31T03:47:08;100581.78;;;23.34
32827;BMP280;51059;42.058;27.986;2023-08-31T03:49:34;100589.81;;;23.91
32827;BMP280;51059;42.058;27.986;2023-08-31T03:52:00;100589.13;;;24.59
32827;BMP280;51059;42.058;27.986;2023-08-31T03:54:26;100582.47;;;25.12
32827;BMP280;51059;42.058;27.986;2023-08-31T03:56:52;100577.41;;;25.63
32827;BMP280;51059;42.058;27.986;2023-08-31T03:59:18;100597.53;;;26.34
32827;BMP280;51059;42.058;27.986;2023-08-31T04:01:44;100586.34;;;26.78
32827;BMP280;51059;42.058;27.986;2023-08-31T04:04:10;100591.84;;;27.37
32827;BMP280;51059;42.058;27.986;2023-08-31T04:06:36;100584.31;;;28.02
32827;BMP280;51059;42.058;27.986;2023-08-31T04:09:02;100590.75;;;28.77
32827;BMP280;51059;42.058;27.986;2023-08-31T04:11:28;100597.78;;;29.28
32827;BMP280;51059;42.058;27.986;2023-08-31T04:13:53;100596.75;;;30.10
32827;BMP280;51059;42.058;27.986;2023-08-31T04:16:20;100596.25;;;30.94
32827;BMP280;51059;42.058;27.986;2023-08-31T04:18:46;100608.94;;;31.00
32827;BMP280;51059;42.058;27.986;2023-08-31T04:21:17;100603.66;;;31.46
32827;BMP280;51059;42.058;27.986;2023-08-31T04:23:44;100609.06;;;32.22
32827;BMP280;51059;42.058;27.986;2023-08-31T04:26:14;100608.69;;;32.50
32827;BMP280;51059;42.058;27.986;2023-08-31T04:28:40;100620.34;;;33.32
32827;BMP280;51059;42.058;27.986;2023-08-31T04:31:09;100618.19;;;33.59
32827;BMP280;51059;42.058;27.986;2023-08-31T04:33:36;100616.09;;;34.18
32827;BMP280;51059;42.058;27.986;2023-08-31T04:36:03;100620.13;;;34.71
32827;BMP280;51059;42.058;27.986;2023-08-31T04:38:31;100610.56;;;34.88
32827;BMP280;51059;42.058;27.986;2023-08-31T04:41:00;100614.31;;;35.74
32827;BMP280;51059;42.058;27.986;2023-08-31T04:43:26;100613.88;;;35.81
32827;BMP280;51059;42.058;27.986;2023-08-31T04:45:53;100621.34;;;36.30
32827;BMP280;51059;42.058;27.986;2023-08-31T04:48:20;100627.28;;;36.74
32827;BMP280;51059;42.058;27.986;2023-08-31T04:50:46;100635.28;;;36.85
32827;BMP280;51059;42.058;27.986;2023-08-31T04:53:12;100618.63;;;37.15
32827;BMP280;51059;42.058;27.986;2023-08-31T04:55:39;100628.66;;;37.34
32827;BMP280;51059;42.058;27.986;2023-08-31T04:58:05;100627.91;;;37.32
32827;BMP280;51059;42.058;27.986;2023-08-31T05:00:31;100617.53;;;37.44
32827;BMP280;51059;42.058;27.986;2023-08-31T05:02:57;100628.59;;;36.81
32827;BMP280;51059;42.058;27.986;2023-08-31T05:05:24;100631.47;;;37.17
32827;BMP280;51059;42.058;27.986;2023-08-31T05:07:51;100638.13;;;36.67
32827;BMP280;51059;42.058;27.986;2023-08-31T05:10:17;100615.81;;;35.63
32827;BMP280;51059;42.058;27.986;2023-08-31T05:12:43;100621.63;;;34.60
32827;BMP280;51059;42.058;27.986;2023-08-31T05:15:09;100613.28;;;35.01
32827;BMP280;51059;42.058;27.986;2023-08-31T05:17:35;100611.00;;;34.64
32827;BMP280;51059;42.058;27.986;2023-08-31T05:20:01;100614.97;;;34.55
32827;BMP280;51059;42.058;27.986;2023-08-31T05:22:29;100617.16;;;34.14
32827;BMP280;51059;42.058;27.986;2023-08-31T05:24:55;100630.72;;;34.52
32827;BMP280;51059;42.058;27.986;2023-08-31T05:27:21;100621.25;;;34.51
32827;BMP280;51059;42.058;27.986;2023-08-31T05:29:48;100623.47;;;34.25
32827;BMP280;51059;42.058;27.986;2023-08-31T05:32:15;100622.22;;;34.65
32827;BMP280;51059;42.058;27.986;2023-08-31T05:34:41;100625.59;;;34.50
32827;BMP280;51059;42.058;27.986;2023-08-31T05:37:07;100623.91;;;34.33
32827;BMP280;51059;42.058;27.986;2023-08-31T05:39:32;100625.22;;;34.25
32827;BMP280;51059;42.058;27.986;2023-08-31T05:41:58;100627.81;;;34.41
32827;BMP280;51059;42.058;27.986;2023-08-31T05:44:24;100600.81;;;34.61
32827;BMP280;51059;42.058;27.986;2023-08-31T05:46:50;100629.78;;;34.36
32827;BMP280;51059;42.058;27.986;2023-08-31T05:49:16;100621.25;;;34.18
32827;BMP280;51059;42.058;27.986;2023-08-31T05:51:42;100630.41;;;34.57
32827;BMP280;51059;42.058;27.986;2023-08-31T05:54:09;100625.59;;;34.50
32827;BMP280;51059;42.058;27.986;2023-08-31T05:56:39;100630.41;;;34.25
32827;BMP280;51059;42.058;27.986;2023-08-31T05:59:07;100641.47;;;34.61
32827;BMP280;51059;42.058;27.986;2023-08-31T06:01:35;100646.56;;;34.62
32827;BMP280;51059;42.058;27.986;2023-08-31T06:04:02;100649.44;;;34.24
32827;BMP280;51059;42.058;27.986;2023-08-31T06:06:29;100646.13;;;34.22
32827;BMP280;51059;42.058;27.986;2023-08-31T06:08:55;100651.34;;;34.37
32827;BMP280;51059;42.058;27.986;2023-08-31T06:11:22;100648.63;;;34.40
32827;BMP280;51059;42.058;27.986;2023-08-31T06:13:48;100651.00;;;34.60
32827;BMP280;51059;42.058;27.986;2023-08-31T06:16:13;100655.25;;;34.45
32827;BMP280;51059;42.058;27.986;2023-08-31T06:18:40;100654.41;;;34.44
32827;BMP280;51059;42.058;27.986;2023-08-31T06:21:06;100654.53;;;34.74
32827;BMP280;51059;42.058;27.986;2023-08-31T06:23:32;100667.88;;;34.52
32827;BMP280;51059;42.058;27.986;2023-08-31T06:25:58;100667.59;;;34.73
32827;BMP280;51059;42.058;27.986;2023-08-31T06:28:24;100666.41;;;34.95
32827;BMP280;51059;42.058;27.986;2023-08-31T06:30:51;100666.50;;;34.93
32827;BMP280;51059;42.058;27.986;2023-08-31T06:33:18;100659.75;;;35.52
32827;BMP280;51059;42.058;27.986;2023-08-31T06:35:48;100667.31;;;33.95
32827;BMP280;51059;42.058;27.986;2023-08-31T06:38:18;100669.53;;;35.17
32827;BMP280;51059;42.058;27.986;2023-08-31T06:40:43;100669.25;;;34.90
32827;BMP280;51059;42.058;27.986;2023-08-31T06:43:09;100690.13;;;35.20
32827;BMP280;51059;42.058;27.986;2023-08-31T06:45:35;100666.00;;;35.18
32827;BMP280;51059;42.058;27.986;2023-08-31T06:48:08;100669.34;;;35.52
32827;BMP280;51059;42.058;27.986;2023-08-31T06:50:34;100679.16;;;35.30
32827;BMP280;51059;42.058;27.986;2023-08-31T06:53:01;100678.44;;;35.88
32827;BMP280;51059;42.058;27.986;2023-08-31T06:55:27;100694.06;;;36.32
32827;BMP280;51059;42.058;27.986;2023-08-31T06:57:53;100682.88;;;36.01
32827;BMP280;51059;42.058;27.986;2023-08-31T07:00:19;100696.41;;;35.31
32827;BMP280;51059;42.058;27.986;2023-08-31T07:02:45;100692.78;;;35.80
32827;BMP280;51059;42.058;27.986;2023-08-31T07:05:11;100683.94;;;36.56
32827;BMP280;51059;42.058;27.986;2023-08-31T07:07:37;100684.53;;;36.46
32827;BMP280;51059;42.058;27.986;2023-08-31T07:10:04;100683.78;;;36.44
32827;BMP280;51059;42.058;27.986;2023-08-31T07:12:31;100668.97;;;36.59
32827;BMP280;51059;42.058;27.986;2023-08-31T07:14:57;100692.94;;;36.07
32827;BMP280;51059;42.058;27.986;2023-08-31T07:17:23;100683.22;;;36.24
32827;BMP280;51059;42.058;27.986;2023-08-31T07:19:48;100686.50;;;36.85
32827;BMP280;51059;42.058;27.986;2023-08-31T07:22:14;100685.88;;;37.35
32827;BMP280;51059;42.058;27.986;2023-08-31T07:24:40;100695.63;;;37.05
32827;BMP280;51059;42.058;27.986;2023-08-31T07:27:07;100695.88;;;36.16
32827;BMP280;51059;42.058;27.986;2023-08-31T07:29:33;100695.03;;;36.73
32827;BMP280;51059;42.058;27.986;2023-08-31T07:31:59;100709.94;;;36.98
32827;BMP280;51059;42.058;27.986;2023-08-31T07:34:25;100694.78;;;35.75
32827;BMP280;51059;42.058;27.986;2023-08-31T07:36:52;100702.56;;;35.14
32827;BMP280;51059;42.058;27.986;2023-08-31T07:39:18;100695.63;;;34.67
32827;BMP280;51059;42.058;27.986;2023-08-31T07:41:44;100715.03;;;33.38
32827;BMP280;51059;42.058;27.986;2023-08-31T07:44:10;100704.31;;;32.30
32827;BMP280;51059;42.058;27.986;2023-08-31T07:46:37;100712.44;;;32.42
32827;BMP280;51059;42.058;27.986;2023-08-31T07:49:03;100711.41;;;31.84
32827;BMP280;51059;42.058;27.986;2023-08-31T07:51:29;100702.53;;;32.90
32827;BMP280;51059;42.058;27.986;2023-08-31T07:53:55;100691.91;;;32.57
32827;BMP280;51059;42.058;27.986;2023-08-31T07:56:22;100700.84;;;32.51
32827;BMP280;51059;42.058;27.986;2023-08-31T07:58:49;100698.09;;;31.94
32827;BMP280;51059;42.058;27.986;2023-08-31T08:01:15;100718.72;;;32.76
32827;BMP280;51059;42.058;27.986;2023-08-31T08:03:42;100683.97;;;34.08
32827;BMP280;51059;42.058;27.986;2023-08-31T08:06:09;100701.53;;;32.55
32827;BMP280;51059;42.058;27.986;2023-08-31T08:08:35;100694.56;;;32.77
32827;BMP280;51059;42.058;27.986;2023-08-31T08:11:01;100684.59;;;33.78
32827;BMP280;51059;42.058;27.986;2023-08-31T08:13:28;100691.59;;;33.76
32827;BMP280;51059;42.058;27.986;2023-08-31T08:15:54;100686.72;;;33.15
32827;BMP280;51059;42.058;27.986;2023-08-31T08:18:20;100700.06;;;32.69
32827;BMP280;51059;42.058;27.986;2023-08-31T08:20:53;100686.19;;;32.70
32827;BMP280;51059;42.058;27.986;2023-08-31T08:23:19;100694.81;;;32.71
32827;BMP280;51059;42.058;27.986;2023-08-31T08:25:45;100677.91;;;34.58
32827;BMP280;51059;42.058;27.986;2023-08-31T08:28:11;100680.31;;;35.10
32827;BMP280;51059;42.058;27.986;2023-08-31T08:30:37;100679.06;;;34.20
32827;BMP280;51059;42.058;27.986;2023-08-31T08:33:03;100675.31;;;34.25
32827;BMP280;51059;42.058;27.986;2023-08-31T08:35:30;100691.09;;;34.37
32827;BMP280;51059;42.058;27.986;2023-08-31T08:37:56;100701.09;;;33.94
32827;BMP280;51059;42.058;27.986;2023-08-31T08:40:24;100707.00;;;33.79
32827;BMP280;51059;42.058;27.986;2023-08-31T08:42:52;100727.13;;;32.21
32827;BMP280;51059;42.058;27.986;2023-08-31T08:45:20;100726.16;;;32.83
32827;BMP280;51059;42.058;27.986;2023-08-31T08:47:49;100713.41;;;33.35
32827;BMP280;51059;42.058;27.986;2023-08-31T08:50:17;100725.41;;;32.41
32827;BMP280;51059;42.058;27.986;2023-08-31T08:52:43;100721.28;;;32.37
32827;BMP280;51059;42.058;27.986;2023-08-31T08:55:10;100719.66;;;32.54
32827;BMP280;51059;42.058;27.986;2023-08-31T08:57:36;100724.53;;;33.00
32827;BMP280;51059;42.058;27.986;2023-08-31T09:00:02;100739.81;;;32.67
32827;BMP280;51059;42.058;27.986;2023-08-31T09:02:29;100731.22;;;32.86
32827;BMP280;51059;42.058;27.986;2023-08-31T09:04:55;100718.22;;;33.62
32827;BMP280;51059;42.058;27.986;2023-08-31T09:07:21;100712.78;;;32.93
32827;BMP280;51059;42.058;27.986;2023-08-31T09:09:51;100731.31;;;32.44
32827;BMP280;51059;42.058;27.986;2023-08-31T09:12:24;100730.38;;;32.85
32827;BMP280;51059;42.058;27.986;2023-08-31T09:15:16;100721.78;;;32.66
32827;BMP280;51059;42.058;27.986;2023-08-31T09:17:42;100733.03;;;32.44
32827;BMP280;51059;42.058;27.986;2023-08-31T09:20:13;100722.94;;;32.57
32827;BMP280;51059;42.058;27.986;2023-08-31T09:22:42;100728.66;;;32.46
32827;BMP280;51059;42.058;27.986;2023-08-31T09:25:10;100721.28;;;32.56
32827;BMP280;51059;42.058;27.986;2023-08-31T09:27:39;100726.50;;;32.15
32827;BMP280;51059;42.058;27.986;2023-08-31T09:30:08;100730.63;;;31.98
32827;BMP280;51059;42.058;27.986;2023-08-31T09:32:35;100729.66;;;32.23
32827;BMP280;51059;42.058;27.986;2023-08-31T09:35:02;100727.47;;;32.33
32827;BMP280;51059;42.058;27.986;2023-08-31T09:37:29;100728.25;;;31.94
32827;BMP280;51059;42.058;27.986;2023-08-31T09:39:55;100720.31;;;31.55
32827;BMP280;51059;42.058;27.986;2023-08-31T09:42:21;100724.69;;;31.75
32827;BMP280;51059;42.058;27.986;2023-08-31T09:44:49;100738.03;;;32.07
32827;BMP280;51059;42.058;27.986;2023-08-31T09:47:17;100720.38;;;31.97
32827;BMP280;51059;42.058;27.986;2023-08-31T09:49:44;100743.13;;;31.67
32827;BMP280;51059;42.058;27.986;2023-08-31T09:52:12;100733.22;;;31.55
32827;BMP280;51059;42.058;27.986;2023-08-31T09:54:42;100734.94;;;31.54
32827;BMP280;51059;42.058;27.986;2023-08-31T09:57:10;100721.09;;;31.79
32827;BMP280;51059;42.058;27.986;2023-08-31T09:59:38;100720.44;;;31.30
32827;BMP280;51059;42.058;27.986;2023-08-31T10:02:05;100719.06;;;31.65
32827;BMP280;51059;42.058;27.986;2023-08-31T10:04:32;100727.69;;;31.64
32827;BMP280;51059;42.058;27.986;2023-08-31T10:07:00;100705.94;;;31.91
32827;BMP280;51059;42.058;27.986;2023-08-31T10:09:26;100718.44;;;31.58
32827;BMP280;51059;42.058;27.986;2023-08-31T10:11:54;100723.69;;;31.35
32827;BMP280;51059;42.058;27.986;2023-08-31T10:14:20;100726.25;;;31.57
32827;BMP280;51059;42.058;27.986;2023-08-31T10:16:48;100727.84;;;31.83
32827;BMP280;51059;42.058;27.986;2023-08-31T10:19:15;100722.31;;;31.92
32827;BMP280;51059;42.058;27.986;2023-08-31T10:21:41;100717.13;;;31.49
32827;BMP280;51059;42.058;27.986;2023-08-31T10:24:09;100726.97;;;31.60
32827;BMP280;51059;42.058;27.986;2023-08-31T10:26:35;100728.03;;;31.34
32827;BMP280;51059;42.058;27.986;2023-08-31T10:29:01;100709.78;;;31.82
32827;BMP280;51059;42.058;27.986;2023-08-31T10:31:33;100735.16;;;31.72
32827;BMP280;51059;42.058;27.986;2023-08-31T10:34:00;100740.06;;;31.34
32827;BMP280;51059;42.058;27.986;2023-08-31T10:36:45;100730.47;;;31.37
32827;BMP280;51059;42.058;27.986;2023-08-31T10:39:13;100749.97;;;31.45
32827;BMP280;51059;42.058;27.986;2023-08-31T10:41:42;100744.81;;;31.44
32827;BMP280;51059;42.058;27.986;2023-08-31T10:44:19;100740.88;;;31.56
32827;BMP280;51059;42.058;27.986;2023-08-31T10:46:46;100737.53;;;31.54
32827;BMP280;51059;42.058;27.986;2023-08-31T10:49:18;100742.06;;;31.02
32827;BMP280;51059;42.058;27.986;2023-08-31T10:51:46;100731.88;;;30.76
32827;BMP280;51059;42.058;27.986;2023-08-31T10:54:19;100730.84;;;31.49
32827;BMP280;51059;42.058;27.986;2023-08-31T10:57:05;100747.75;;;31.35
32827;BMP280;51059;42.058;27.986;2023-08-31T11:02:36;100739.81;;;30.71
32827;BMP280;51059;42.058;27.986;2023-08-31T11:05:09;100736.41;;;30.44
32827;BMP280;51059;42.058;27.986;2023-08-31T11:07:36;100733.06;;;30.91
32827;BMP280;51059;42.058;27.986;2023-08-31T11:10:09;100735.13;;;30.81
32827;BMP280;51059;42.058;27.986;2023-08-31T11:12:36;100726.72;;;30.99
32827;BMP280;51059;42.058;27.986;2023-08-31T11:15:02;100724.59;;;30.63
32827;BMP280;51059;42.058;27.986;2023-08-31T11:17:30;100719.59;;;30.83
32827;BMP280;51059;42.058;27.986;2023-08-31T11:19:59;100729.63;;;30.91
32827;BMP280;51059;42.058;27.986;2023-08-31T11:22:26;100722.63;;;30.94
32827;BMP280;51059;42.058;27.986;2023-08-31T11:24:52;100707.03;;;30.97
32827;BMP280;51059;42.058;27.986;2023-08-31T11:27:21;100726.66;;;31.01
32827;BMP280;51059;42.058;27.986;2023-08-31T11:29:48;100731.09;;;30.97
32827;BMP280;51059;42.058;27.986;2023-08-31T11:32:14;100735.63;;;30.42
32827;BMP280;51059;42.058;27.986;2023-08-31T11:34:41;100727.84;;;30.44
32827;BMP280;51059;42.058;27.986;2023-08-31T11:37:09;100731.03;;;30.75
32827;BMP280;51059;42.058;27.986;2023-08-31T11:39:37;100723.72;;;30.64
32827;BMP280;51059;42.058;27.986;2023-08-31T11:42:05;100738.94;;;30.95
32827;BMP280;51059;42.058;27.986;2023-08-31T11:44:31;100744.78;;;30.51
32827;BMP280;51059;42.058;27.986;2023-08-31T11:46:57;100741.59;;;30.43
32827;BMP280;51059;42.058;27.986;2023-08-31T11:49:24;100723.13;;;30.56
32827;BMP280;51059;42.058;27.986;2023-08-31T11:51:52;100740.31;;;30.04
32827;BMP280;51059;42.058;27.986;2023-08-31T11:54:18;100741.84;;;29.84
32827;BMP280;51059;42.058;27.986;2023-08-31T11:56:45;100735.47;;;29.68
32827;BMP280;51059;42.058;27.986;2023-08-31T11:59:18;100734.22;;;29.81
32827;BMP280;51059;42.058;27.986;2023-08-31T12:01:49;100729.75;;;29.86
32827;BMP280;51059;42.058;27.986;2023-08-31T12:04:22;100732.94;;;29.94
32827;BMP280;51059;42.058;27.986;2023-08-31T12:06:50;100740.97;;;29.83
32827;BMP280;51059;42.058;27.986;2023-08-31T12:09:16;100728.00;;;30.14
32827;BMP280;51059;42.058;27.986;2023-08-31T12:11:42;100700.56;;;30.62
32827;BMP280;51059;42.058;27.986;2023-08-31T12:14:25;100700.91;;;30.52
32827;BMP280;51059;42.058;27.986;2023-08-31T12:16:53;100713.44;;;30.62
32827;BMP280;51059;42.058;27.986;2023-08-31T12:19:27;100707.81;;;30.77
32827;BMP280;51059;42.058;27.986;2023-08-31T12:21:54;100721.09;;;30.40
32827;BMP280;51059;42.058;27.986;2023-08-31T12:24:20;100724.53;;;30.40
32827;BMP280;51059;42.058;27.986;2023-08-31T12:26:48;100726.53;;;30.56
32827;BMP280;51059;42.058;27.986;2023-08-31T12:29:13;100724.06;;;30.28
32827;BMP280;51059;42.058;27.986;2023-08-31T12:31:39;100724.31;;;29.95
32827;BMP280;51059;42.058;27.986;2023-08-31T12:34:05;100720.94;;;29.93
32827;BMP280;51059;42.058;27.986;2023-08-31T12:36:35;100724.03;;;30.03
32827;BMP280;51059;42.058;27.986;2023-08-31T12:39:04;100711.22;;;30.02
32827;BMP280;51059;42.058;27.986;2023-08-31T12:41:33;100727.69;;;29.96
32827;BMP280;51059;42.058;27.986;2023-08-31T12:44:00;100715.81;;;29.66
32827;BMP280;51059;42.058;27.986;2023-08-31T12:46:26;100726.97;;;29.67
32827;BMP280;51059;42.058;27.986;2023-08-31T12:48:52;100722.97;;;29.55
32827;BMP280;51059;42.058;27.986;2023-08-31T12:51:18;100720.09;;;29.66
32827;BMP280;51059;42.058;27.986;2023-08-31T12:53:44;100724.06;;;29.47
32827;BMP280;51059;42.058;27.986;2023-08-31T12:56:11;100709.13;;;29.59
32827;BMP280;51059;42.058;27.986;2023-08-31T12:58:37;100709.25;;;29.55
32827;BMP280;51059;42.058;27.986;2023-08-31T13:01:03;100710.47;;;29.44
32827;BMP280;51059;42.058;27.986;2023-08-31T13:03:29;100718.34;;;29.39
32827;BMP280;51059;42.058;27.986;2023-08-31T13:05:55;100707.44;;;29.86
32827;BMP280;51059;42.058;27.986;2023-08-31T13:08:21;100696.81;;;30.22
32827;BMP280;51059;42.058;27.986;2023-08-31T13:10:54;100695.16;;;30.21
32827;BMP280;51059;42.058;27.986;2023-08-31T13:13:21;100710.84;;;29.87
32827;BMP280;51059;42.058;27.986;2023-08-31T13:15:48;100703.94;;;30.15
32827;BMP280;51059;42.058;27.986;2023-08-31T13:18:14;100714.38;;;30.09
32827;BMP280;51059;42.058;27.986;2023-08-31T13:20:48;100710.19;;;29.52
32827;BMP280;51059;42.058;27.986;2023-08-31T13:23:14;100709.91;;;29.63
32827;BMP280;51059;42.058;27.986;2023-08-31T13:25:40;100709.88;;;29.35
32827;BMP280;51059;42.058;27.986;2023-08-31T13:28:07;100716.78;;;29.33
32827;BMP280;51059;42.058;27.986;2023-08-31T13:30:33;100715.56;;;29.45
32827;BMP280;51059;42.058;27.986;2023-08-31T13:32:59;100720.09;;;29.66
32827;BMP280;51059;42.058;27.986;2023-08-31T13:35:25;100723.47;;;29.39
32827;BMP280;51059;42.058;27.986;2023-08-31T13:37:51;100722.25;;;29.51
32827;BMP280;51059;42.058;27.986;2023-08-31T13:40:18;100713.50;;;29.84
32827;BMP280;51059;42.058;27.986;2023-08-31T13:42:56;100714.28;;;30.12
32827;BMP280;51059;42.058;27.986;2023-08-31T13:45:29;100701.69;;;30.30
32827;BMP280;51059;42.058;27.986;2023-08-31T13:47:58;100707.53;;;30.35
32827;BMP280;51059;42.058;27.986;2023-08-31T13:50:30;100720.47;;;30.07
32827;BMP280;51059;42.058;27.986;2023-08-31T13:52:56;100710.34;;;30.01
32827;BMP280;51059;42.058;27.986;2023-08-31T13:55:22;100710.66;;;29.93